sensor_id;sensor_type;location;lat;lon;timestamp;pressure;altitude;pressure_sealevel;temperature;humidity
64933;BME280;51446;53.850;10.662;2023-01-31T00:00:56;101409.06;;;2.54;100.00
64933;BME280;51446;53.850;10.662;2023-01-31T00:03:28;101407.56;;;2.58;100.00
64933;BME280;51446;53.850;10.662;2023-01-31T00:05:53;101411.31;;;2.48;100.00
64933;BME280;51446;53.850;10.662;2023-01-31T00:08:18;101415.97;;;2.54;100.00
64933;BME280;51446;53.850;10.662;2023-01-31T00:10:44;101411.56;;;2.53;100.00
64933;BME280;51446;53.850;10.662;2023-01-31T00:13:09;101411.50;;;2.51;100.00
64933;BME280;51446;53.850;10.662;2023-01-31T00:15:34;101411.66;;;2.54;100.00
64933;BME280;51446;53.850;10.662;2023-01-31T00:18:00;101427.28;;;2.56;100.00
64933;BME280;51446;53.850;10.662;2023-01-31T00:20:26;101430.50;;;2.52;100.00
64933;BME280;51446;53.850;10.662;2023-01-31T00:22:51;101425.03;;;2.62;100.00
64933;BME280;51446;53.850;10.662;2023-01-31T00:25:17;101426.66;;;2.60;100.00
64933;BME280;51446;53.850;10.662;2023-01-31T00:27:42;101422.56;;;2.49;100.00
64933;BME280;51446;53.850;10.662;2023-01-31T00:30:08;101425.22;;;2.50;100.00
64933;BME280;51446;53.850;10.662;2023-01-31T00:32:34;101427.13;;;2.53;100.00
64933;BME280;51446;53.850;10.662;2023-01-31T00:34:59;101428.25;;;2.43;100.00
64933;BME280;51446;53.850;10.662;2023-01-31T00:37:26;101429.34;;;2.47;100.00
64933;BME280;51446;53.850;10.662;2023-01-31T00:39:51;101444.72;;;2.43;100.00
64933;BME280;51446;53.850;10.662;2023-01-31T00:42:17;101443.69;;;2.41;100.00
64933;BME280;51446;53.850;10.662;2023-01-31T00:44:42;101446.47;;;2.30;100.00
64933;BME280;51446;53.850;10.662;2023-01-31T00:47:07;101465.38;;;2.29;100.00
64933;BME280;51446;53.850;10.662;2023-01-31T00:49:32;101462.69;;;2.27;100.00
64933;BME280;51446;53.850;10.662;2023-01-31T00:51:58;101461.03;;;2.42;100.00
64933;BME280;51446;53.850;10.662;2023-01-31T00:54:23;101472.19;;;2.41;100.00
64933;BME280;51446;53.850;10.662;2023-01-31T00:56:48;101472.09;;;2.40;100.00
64933;BME280;51446;53.850;10.662;2023-01-31T00:59:14;101483.81;;;2.48;100.00
64933;BME280;51446;53.850;10.662;2023-01-31T01:01:39;101474.25;;;2.47;100.00
64933;BME280;51446;53.850;10.662;2023-01-31T01:04:05;101473.72;;;2.53;100.00
64933;BME280;51446;53.850;10.662;2023-01-31T01:06:30;101476.91;;;2.49;100.00
64933;BME280;51446;53.850;10.662;2023-01-31T01:08:56;101484.69;;;2.49;100.00
64933;BME280;51446;53.850;10.662;2023-01-31T01:11:31;101482.63;;;2.43;100.00
64933;BME280;51446;53.850;10.662;2023-01-31T01:13:58;101473.44;;;2.48;100.00
64933;BME280;51446;53.850;10.662;2023-01-31T01:16:27;101472.75;;;2.51;100.00
64933;BME280;51446;53.850;10.662;2023-01-31T01:18:53;101465.41;;;2.43;100.00
64933;BME280;51446;53.850;10.662;2023-01-31T01:21:23;101468.00;;;2.58;100.00
64933;BME280;51446;53.850;10.662;2023-01-31T01:23:49;101455.06;;;2.58;100.00
64933;BME280;51446;53.850;10.662;2023-01-31T01:26:22;101463.63;;;2.57;100.00
64933;BME280;51446;53.850;10.662;2023-01-31T01:28:49;101467.75;;;2.54;100.00
64933;BME280;51446;53.850;10.662;2023-01-31T01:31:16;101465.88;;;2.66;100.00
64933;BME280;51446;53.850;10.662;2023-01-31T01:33:42;101466.78;;;2.67;100.00
64933;BME280;51446;53.850;10.662;2023-01-31T01:36:10;101477.41;;;2.71;100.00
64933;BME280;51446;53.850;10.662;2023-01-31T01:38:38;101499.81;;;2.71;100.00
64933;BME280;51446;53.850;10.662;2023-01-31T01:41:04;101494.22;;;2.78;100.00
64933;BME280;51446;53.850;10.662;2023-01-31T01:43:48;101506.88;;;2.88;100.00
64933;BME280;51446;53.850;10.662;2023-01-31T01:46:35;101501.31;;;2.82;100.00
64933;BME280;51446;53.850;10.662;2023-01-31T01:49:14;101500.53;;;2.83;100.00
64933;BME280;51446;53.850;10.662;2023-01-31T01:51:43;101502.06;;;2.94;100.00
64933;BME280;51446;53.850;10.662;2023-01-31T01:54:14;101503.78;;;2.94;100.00
64933;BME280;51446;53.850;10.662;2023-01-31T01:56:42;101498.38;;;2.91;100.00
64933;BME280;51446;53.850;10.662;2023-01-31T01:59:16;101486.44;;;2.78;100.00
64933;BME280;51446;53.850;10.662;2023-01-31T02:01:43;101495.16;;;2.65;100.00
64933;BME280;51446;53.850;10.662;2023-01-31T02:04:29;101494.53;;;2.69;100.00
64933;BME280;51446;53.850;10.662;2023-01-31T02:06:55;101478.09;;;2.69;100.00
64933;BME280;51446;53.850;10.662;2023-01-31T02:10:00;101483.47;;;2.72;100.00
64933;BME280;51446;53.850;10.662;2023-01-31T02:12:27;101485.69;;;2.51;100.00
64933;BME280;51446;53.850;10.662;2023-01-31T02:14:53;101487.41;;;2.65;100.00
64933;BME280;51446;53.850;10.662;2023-01-31T02:17:19;101485.44;;;2.61;100.00
64933;BME280;51446;53.850;10.662;2023-01-31T02:19:54;101489.69;;;2.60;100.00
64933;BME280;51446;53.850;10.662;2023-01-31T02:22:44;101489.91;;;2.64;100.00
64933;BME280;51446;53.850;10.662;2023-01-31T02:25:51;101491.03;;;2.54;100.00
64933;BME280;51446;53.850;10.662;2023-01-31T02:28:45;101497.28;;;2.57;100.00
64933;BME280;51446;53.850;10.662;2023-01-31T02:33:56;101510.66;;;2.50;100.00
64933;BME280;51446;53.850;10.662;2023-01-31T02:45:37;101522.06;;;2.39;100.00
64933;BME280;51446;53.850;10.662;2023-01-31T02:51:06;101538.69;;;2.42;100.00
64933;BME280;51446;53.850;10.662;2023-01-31T02:53:39;101522.22;;;2.27;100.00
64933;BME280;51446;53.850;10.662;2023-01-31T02:56:30;101544.50;;;2.53;100.00
64933;BME280;51446;53.850;10.662;2023-01-31T03:01:34;101542.50;;;2.34;100.00
64933;BME280;51446;53.850;10.662;2023-01-31T03:04:06;101542.91;;;2.27;100.00
64933;BME280;51446;53.850;10.662;2023-01-31T03:09:16;101542.84;;;2.40;100.00
64933;BME280;51446;53.850;10.662;2023-01-31T03:12:24;101540.06;;;2.51;100.00
64933;BME280;51446;53.850;10.662;2023-01-31T03:15:09;101539.81;;;2.33;100.00
64933;BME280;51446;53.850;10.662;2023-01-31T03:20:37;101535.50;;;2.47;100.00
64933;BME280;51446;53.850;10.662;2023-01-31T03:23:12;101533.13;;;2.08;100.00
64933;BME280;51446;53.850;10.662;2023-01-31T03:25:39;101527.72;;;2.18;100.00
64933;BME280;51446;53.850;10.662;2023-01-31T03:28:09;101516.91;;;2.11;100.00
64933;BME280;51446;53.850;10.662;2023-01-31T03:33:24;101529.53;;;2.06;100.00
64933;BME280;51446;53.850;10.662;2023-01-31T03:35:59;101517.59;;;2.08;100.00
64933;BME280;51446;53.850;10.662;2023-01-31T03:38:32;101523.47;;;2.05;100.00
64933;BME280;51446;53.850;10.662;2023-01-31T03:41:09;101522.00;;;1.96;100.00
64933;BME280;51446;53.850;10.662;2023-01-31T03:44:08;101525.16;;;2.05;100.00
64933;BME280;51446;53.850;10.662;2023-01-31T03:46:39;101513.34;;;1.95;100.00
64933;BME280;51446;53.850;10.662;2023-01-31T03:49:10;101503.03;;;1.82;100.00
64933;BME280;51446;53.850;10.662;2023-01-31T03:51:41;101527.16;;;1.96;100.00
64933;BME280;51446;53.850;10.662;2023-01-31T03:54:13;101530.56;;;1.95;100.00
64933;BME280;51446;53.850;10.662;2023-01-31T03:56:53;101529.66;;;1.94;100.00
64933;BME280;51446;53.850;10.662;2023-01-31T03:59:25;101515.38;;;2.14;100.00
64933;BME280;51446;53.850;10.662;2023-01-31T04:01:54;101529.22;;;2.15;100.00
64933;BME280;51446;53.850;10.662;2023-01-31T04:04:34;101527.53;;;2.15;100.00
64933;BME280;51446;53.850;10.662;2023-01-31T04:07:03;101534.28;;;2.13;100.00
64933;BME280;51446;53.850;10.662;2023-01-31T04:09:30;101533.44;;;2.28;100.00
64933;BME280;51446;53.850;10.662;2023-01-31T04:11:58;101520.47;;;2.41;100.00
64933;BME280;51446;53.850;10.662;2023-01-31T04:14:24;101535.38;;;2.17;100.00
64933;BME280;51446;53.850;10.662;2023-01-31T04:16:49;101538.16;;;2.20;100.00
64933;BME280;51446;53.850;10.662;2023-01-31T04:19:14;101526.97;;;2.34;100.00
64933;BME280;51446;53.850;10.662;2023-01-31T04:21:39;101524.38;;;2.34;100.00
64933;BME280;51446;53.850;10.662;2023-01-31T04:24:05;101510.94;;;2.55;100.00
64933;BME280;51446;53.850;10.662;2023-01-31T04:26:30;101511.06;;;2.71;100.00
64933;BME280;51446;53.850;10.662;2023-01-31T04:28:55;101504.34;;;2.60;100.00
64933;BME280;51446;53.850;10.662;2023-01-31T04:31:20;101503.50;;;2.46;100.00
64933;BME280;51446;53.850;10.662;2023-01-31T04:33:46;101506.91;;;2.45;100.00
64933;BME280;51446;53.850;10.662;2023-01-31T04:36:11;101510.94;;;2.55;100.00
64933;BME280;51446;53.850;10.662;2023-01-31T04:38:36;101511.16;;;2.58;100.00
64933;BME280;51446;53.850;10.662;2023-01-31T04:41:02;101509.00;;;2.51;100.00
64933;BME280;51446;53.850;10.662;2023-01-31T04:43:27;101504.03;;;2.40;100.00
64933;BME280;51446;53.850;10.662;2023-01-31T04:45:52;101507.88;;;2.32;100.00
64933;BME280;51446;53.850;10.662;2023-01-31T04:48:17;101516.16;;;2.27;100.00
64933;BME280;51446;53.850;10.662;2023-01-31T04:50:43;101518.66;;;2.25;100.00
64933;BME280;51446;53.850;10.662;2023-01-31T04:53:08;101511.44;;;2.34;100.00
64933;BME280;51446;53.850;10.662;2023-01-31T04:55:34;101519.28;;;2.36;100.00
64933;BME280;51446;53.850;10.662;2023-01-31T04:57:59;101513.00;;;2.60;100.00
64933;BME280;51446;53.850;10.662;2023-01-31T05:00:25;101517.28;;;2.45;100.00
64933;BME280;51446;53.850;10.662;2023-01-31T05:02:52;101518.25;;;2.62;100.00
64933;BME280;51446;53.850;10.662;2023-01-31T05:05:17;101516.84;;;2.67;100.00
64933;BME280;51446;53.850;10.662;2023-01-31T05:07:43;101528.34;;;2.57;100.00
64933;BME280;51446;53.850;10.662;2023-01-31T05:10:09;101520.16;;;2.65;100.00
64933;BME280;51446;53.850;10.662;2023-01-31T05:12:34;101517.56;;;2.65;100.00
64933;BME280;51446;53.850;10.662;2023-01-31T05:15:00;101520.97;;;2.64;100.00
64933;BME280;51446;53.850;10.662;2023-01-31T05:17:25;101519.63;;;2.55;100.00
64933;BME280;51446;53.850;10.662;2023-01-31T05:19:56;101513.56;;;2.70;100.00
64933;BME280;51446;53.850;10.662;2023-01-31T05:22:22;101507.59;;;2.71;100.00
64933;BME280;51446;53.850;10.662;2023-01-31T05:24:47;101500.78;;;2.73;100.00
64933;BME280;51446;53.850;10.662;2023-01-31T05:27:13;101500.97;;;2.76;100.00
64933;BME280;51446;53.850;10.662;2023-01-31T05:29:39;101499.09;;;2.73;100.00
64933;BME280;51446;53.850;10.662;2023-01-31T05:32:04;101497.84;;;2.67;100.00
64933;BME280;51446;53.850;10.662;2023-01-31T05:34:30;101494.47;;;2.83;100.00
64933;BME280;51446;53.850;10.662;2023-01-31T05:36:57;101498.56;;;2.79;100.00
64933;BME280;51446;53.850;10.662;2023-01-31T05:39:23;101494.56;;;2.84;100.00
64933;BME280;51446;53.850;10.662;2023-01-31T05:41:48;101490.97;;;2.82;100.00
64933;BME280;51446;53.850;10.662;2023-01-31T05:44:13;101490.97;;;2.82;100.00
64933;BME280;51446;53.850;10.662;2023-01-31T05:46:40;101485.06;;;2.85;100.00
64933;BME280;51446;53.850;10.662;2023-01-31T05:49:05;101489.91;;;2.78;100.00
64933;BME280;51446;53.850;10.662;2023-01-31T05:51:31;101488.19;;;2.79;100.00
64933;BME280;51446;53.850;10.662;2023-01-31T05:53:56;101484.81;;;2.80;100.00
64933;BME280;51446;53.850;10.662;2023-01-31T05:56:22;101480.06;;;2.73;100.00
64933;BME280;51446;53.850;10.662;2023-01-31T05:58:48;101480.69;;;2.69;100.00
64933;BME280;51446;53.850;10.662;2023-01-31T06:01:26;101475.59;;;2.70;100.00
64933;BME280;51446;53.850;10.662;2023-01-31T06:03:51;101450.06;;;2.62;100.00
64933;BME280;51446;53.850;10.662;2023-01-31T06:06:17;101468.44;;;2.66;100.00
64933;BME280;51446;53.850;10.662;2023-01-31T06:08:42;101473.00;;;2.70;100.00
64933;BME280;51446;53.850;10.662;2023-01-31T06:11:08;101473.38;;;2.76;100.00
64933;BME280;51446;53.850;10.662;2023-01-31T06:13:38;101474.53;;;2.82;100.00
64933;BME280;51446;53.850;10.662;2023-01-31T06:16:05;101467.75;;;2.84;100.00
64933;BME280;51446;53.850;10.662;2023-01-31T06:18:30;101466.59;;;2.78;100.00
64933;BME280;51446;53.850;10.662;2023-01-31T06:20:56;101464.00;;;2.78;100.00
64933;BME280;51446;53.850;10.662;2023-01-31T06:23:21;101461.31;;;2.77;100.00
64933;BME280;51446;53.850;10.662;2023-01-31T06:25:50;101457.50;;;2.85;100.00
64933;BME280;51446;53.850;10.662;2023-01-31T06:28:17;101454.53;;;2.94;100.00
64933;BME280;51446;53.850;10.662;2023-01-31T06:30:42;101457.66;;;3.03;100.00
64933;BME280;51446;53.850;10.662;2023-01-31T06:33:08;101463.47;;;3.14;100.00
64933;BME280;51446;53.850;10.662;2023-01-31T06:35:33;101459.44;;;3.04;100.00
64933;BME280;51446;53.850;10.662;2023-01-31T06:37:59;101463.78;;;3.05;100.00
64933;BME280;51446;53.850;10.662;2023-01-31T06:40:24;101463.00;;;3.06;100.00
64933;BME280;51446;53.850;10.662;2023-01-31T06:42:49;101459.88;;;3.12;100.00
64933;BME280;51446;53.850;10.662;2023-01-31T06:45:14;101457.19;;;3.10;100.00
64933;BME280;51446;53.850;10.662;2023-01-31T06:47:40;101447.72;;;3.11;100.00
64933;BME280;51446;53.850;10.662;2023-01-31T06:50:05;101438.00;;;3.07;100.00
64933;BME280;51446;53.850;10.662;2023-01-31T06:52:31;101434.94;;;3.14;100.00
64933;BME280;51446;53.850;10.662;2023-01-31T06:54:56;101431.28;;;3.10;100.00
64933;BME280;51446;53.850;10.662;2023-01-31T06:57:21;101430.81;;;3.18;100.00
64933;BME280;51446;53.850;10.662;2023-01-31T06:59:46;101425.63;;;3.18;100.00
64933;BME280;51446;53.850;10.662;2023-01-31T07:02:11;101429.94;;;3.17;100.00
64933;BME280;51446;53.850;10.662;2023-01-31T07:04:37;101437.53;;;3.14;100.00
64933;BME280;51446;53.850;10.662;2023-01-31T07:07:02;101432.69;;;3.20;100.00
64933;BME280;51446;53.850;10.662;2023-01-31T07:09:27;101435.78;;;3.29;100.00
64933;BME280;51446;53.850;10.662;2023-01-31T07:11:53;101427.31;;;3.32;100.00
64933;BME280;51446;53.850;10.662;2023-01-31T07:14:18;101421.22;;;3.32;100.00
64933;BME280;51446;53.850;10.662;2023-01-31T07:16:43;101416.94;;;3.32;100.00
64933;BME280;51446;53.850;10.662;2023-01-31T07:19:08;101411.75;;;3.32;100.00
64933;BME280;51446;53.850;10.662;2023-01-31T07:21:34;101418.59;;;3.46;100.00
64933;BME280;51446;53.850;10.662;2023-01-31T07:24:01;101405.53;;;3.45;100.00
64933;BME280;51446;53.850;10.662;2023-01-31T07:26:26;101401.22;;;3.45;100.00
64933;BME280;51446;53.850;10.662;2023-01-31T07:28:52;101400.09;;;3.40;100.00
64933;BME280;51446;53.850;10.662;2023-01-31T07:31:17;101394.53;;;3.49;100.00
64933;BME280;51446;53.850;10.662;2023-01-31T07:33:43;101386.75;;;3.49;100.00
64933;BME280;51446;53.850;10.662;2023-01-31T07:36:11;101382.59;;;3.53;100.00
64933;BME280;51446;53.850;10.662;2023-01-31T07:38:37;101380.44;;;3.60;100.00
64933;BME280;51446;53.850;10.662;2023-01-31T07:41:03;101386.13;;;3.53;100.00
64933;BME280;51446;53.850;10.662;2023-01-31T07:43:30;101382.88;;;3.57;100.00
64933;BME280;51446;53.850;10.662;2023-01-31T07:45:55;101383.28;;;3.65;100.00
64933;BME280;51446;53.850;10.662;2023-01-31T07:48:21;101373.47;;;3.59;100.00
64933;BME280;51446;53.850;10.662;2023-01-31T07:50:51;101367.81;;;3.67;100.00
64933;BME280;51446;53.850;10.662;2023-01-31T07:53:18;101356.53;;;3.66;100.00
64933;BME280;51446;53.850;10.662;2023-01-31T07:55:43;101358.16;;;3.64;100.00
64933;BME280;51446;53.850;10.662;2023-01-31T07:58:13;101355.06;;;3.71;100.00
64933;BME280;51446;53.850;10.662;2023-01-31T08:00:39;101352.56;;;3.73;100.00
64933;BME280;51446;53.850;10.662;2023-01-31T08:03:25;101336.19;;;3.74;100.00
64933;BME280;51446;53.850;10.662;2023-01-31T08:06:01;101343.97;;;3.74;100.00
64933;BME280;51446;53.850;10.662;2023-01-31T08:08:27;101344.63;;;3.70;100.00
64933;BME280;51446;53.850;10.662;2023-01-31T08:10:52;101335.47;;;3.76;100.00
64933;BME280;51446;53.850;10.662;2023-01-31T08:13:17;101332.63;;;3.72;100.00
64933;BME280;51446;53.850;10.662;2023-01-31T08:15:42;101332.22;;;3.80;100.00
64933;BME280;51446;53.850;10.662;2023-01-31T08:18:08;101337.34;;;3.79;100.00
64933;BME280;51446;53.850;10.662;2023-01-31T08:20:33;101321.34;;;3.71;100.00
64933;BME280;51446;53.850;10.662;2023-01-31T08:23:01;101320.06;;;3.79;100.00
64933;BME280;51446;53.850;10.662;2023-01-31T08:25:27;101316.97;;;3.70;100.00
64933;BME280;51446;53.850;10.662;2023-01-31T08:27:56;101313.16;;;3.80;100.00
64933;BME280;51446;53.850;10.662;2023-01-31T08:30:22;101308.81;;;3.79;100.00
64933;BME280;51446;53.850;10.662;2023-01-31T08:32:47;101296.06;;;3.84;100.00
64933;BME280;51446;53.850;10.662;2023-01-31T08:35:13;101290.16;;;3.86;100.00
64933;BME280;51446;53.850;10.662;2023-01-31T08:37:38;101286.78;;;3.89;100.00
64933;BME280;51446;53.850;10.662;2023-01-31T08:40:03;101293.91;;;3.93;100.00
64933;BME280;51446;53.850;10.662;2023-01-31T08:42:29;101285.97;;;3.90;100.00
64933;BME280;51446;53.850;10.662;2023-01-31T08:44:54;101288.31;;;4.02;100.00
64933;BME280;51446;53.850;10.662;2023-01-31T08:47:19;101285.25;;;3.92;100.00
64933;BME280;51446;53.850;10.662;2023-01-31T08:49:44;101282.50;;;3.89;100.00
64933;BME280;51446;53.850;10.662;2023-01-31T08:52:10;101283.41;;;3.90;100.00
64933;BME280;51446;53.850;10.662;2023-01-31T08:54:35;101271.31;;;3.90;100.00
64933;BME280;51446;53.850;10.662;2023-01-31T08:57:00;101265.16;;;3.88;100.00
64933;BME280;51446;53.850;10.662;2023-01-31T08:59:26;101264.34;;;3.89;100.00
64933;BME280;51446;53.850;10.662;2023-01-31T09:01:51;101265.22;;;3.90;100.00
64933;BME280;51446;53.850;10.662;2023-01-31T09:04:16;101246.41;;;3.94;100.00
64933;BME280;51446;53.850;10.662;2023-01-31T09:06:41;101240.22;;;4.08;100.00
64933;BME280;51446;53.850;10.662;2023-01-31T09:09:07;101226.78;;;4.17;100.00
64933;BME280;51446;53.850;10.662;2023-01-31T09:11:32;101230.59;;;4.24;100.00
64933;BME280;51446;53.850;10.662;2023-01-31T09:13:59;101217.69;;;4.25;100.00
64933;BME280;51446;53.850;10.662;2023-01-31T09:16:25;101203.13;;;4.29;100.00
64933;BME280;51446;53.850;10.662;2023-01-31T09:18:52;101207.97;;;4.21;100.00
64933;BME280;51446;53.850;10.662;2023-01-31T09:21:19;101192.81;;;4.30;100.00
64933;BME280;51446;53.850;10.662;2023-01-31T09:23:46;101186.06;;;4.16;100.00
64933;BME280;51446;53.850;10.662;2023-01-31T09:26:13;101181.94;;;4.20;100.00
64933;BME280;51446;53.850;10.662;2023-01-31T09:28:39;101172.13;;;4.14;100.00
64933;BME280;51446;53.850;10.662;2023-01-31T09:31:11;101168.03;;;4.19;100.00
64933;BME280;51446;53.850;10.662;2023-01-31T09:33:37;101165.75;;;4.07;100.00
64933;BME280;51446;53.850;10.662;2023-01-31T09:36:07;101152.19;;;4.13;100.00
64933;BME280;51446;53.850;10.662;2023-01-31T09:38:34;101155.75;;;4.15;100.00
64933;BME280;51446;53.850;10.662;2023-01-31T09:41:05;101150.63;;;4.16;100.00
64933;BME280;51446;53.850;10.662;2023-01-31T09:43:37;101148.56;;;4.09;100.00
64933;BME280;51446;53.850;10.662;2023-01-31T09:46:06;101140.19;;;4.15;100.00
64933;BME280;51446;53.850;10.662;2023-01-31T09:48:36;101138.91;;;4.07;100.00
64933;BME280;51446;53.850;10.662;2023-01-31T09:51:04;101130.31;;;4.08;100.00
64933;BME280;51446;53.850;10.662;2023-01-31T09:53:35;101128.69;;;4.10;100.00
64933;BME280;51446;53.850;10.662;2023-01-31T09:58:44;101120.69;;;4.05;100.00
64933;BME280;51446;53.850;10.662;2023-01-31T10:07:08;101119.03;;;4.07;100.00
64933;BME280;51446;53.850;10.662;2023-01-31T10:09:43;101105.41;;;4.11;100.00
64933;BME280;51446;53.850;10.662;2023-01-31T10:12:17;101108.59;;;4.06;100.00
64933;BME280;51446;53.850;10.662;2023-01-31T10:14:50;101102.72;;;4.10;100.00
64933;BME280;51446;53.850;10.662;2023-01-31T10:17:37;101091.59;;;4.12;100.00
64933;BME280;51446;53.850;10.662;2023-01-31T10:22:37;101078.16;;;4.21;100.00
64933;BME280;51446;53.850;10.662;2023-01-31T10:25:16;101070.97;;;4.15;100.00
64933;BME280;51446;53.850;10.662;2023-01-31T10:27:48;101065.84;;;4.17;100.00
64933;BME280;51446;53.850;10.662;2023-01-31T10:30:20;101058.72;;;4.31;100.00
64933;BME280;51446;53.850;10.662;2023-01-31T10:32:50;101051.25;;;4.39;100.00
64933;BME280;51446;53.850;10.662;2023-01-31T10:35:25;101047.34;;;4.29;100.00
64933;BME280;51446;53.850;10.662;2023-01-31T10:38:03;101038.97;;;4.34;100.00
64933;BME280;51446;53.850;10.662;2023-01-31T10:40:38;101029.38;;;4.33;100.00
64933;BME280;51446;53.850;10.662;2023-01-31T10:43:14;101032.34;;;4.41;100.00
64933;BME280;51446;53.850;10.662;2023-01-31T10:45:40;101035.97;;;4.45;100.00
64933;BME280;51446;53.850;10.662;2023-01-31T10:50:39;101020.09;;;4.39;100.00
64933;BME280;51446;53.850;10.662;2023-01-31T10:56:15;101002.69;;;4.36;100.00
64933;BME280;51446;53.850;10.662;2023-01-31T10:58:43;101001.06;;;4.38;100.00
64933;BME280;51446;53.850;10.662;2023-01-31T11:01:09;100992.50;;;4.41;100.00
64933;BME280;51446;53.850;10.662;2023-01-31T11:03:47;100984.09;;;4.46;100.00
64933;BME280;51446;53.850;10.662;2023-01-31T11:06:13;100987.84;;;4.53;100.00
64933;BME280;51446;53.850;10.662;2023-01-31T11:08:45;100972.34;;;4.55;100.00
64933;BME280;51446;53.850;10.662;2023-01-31T11:11:13;100984.44;;;4.54;100.00
64933;BME280;51446;53.850;10.662;2023-01-31T11:13:54;100980.31;;;4.59;100.00
64933;BME280;51446;53.850;10.662;2023-01-31T11:16:20;100979.56;;;4.62;100.00
64933;BME280;51446;53.850;10.662;2023-01-31T11:18:48;100992.81;;;4.68;100.00
64933;BME280;51446;53.850;10.662;2023-01-31T11:21:20;100990.94;;;4.64;100.00
64933;BME280;51446;53.850;10.662;2023-01-31T11:23:47;100986.47;;;4.61;100.00
64933;BME280;51446;53.850;10.662;2023-01-31T11:26:24;100983.19;;;4.65;100.00
64933;BME280;51446;53.850;10.662;2023-01-31T11:28:51;100973.06;;;4.72;100.00
64933;BME280;51446;53.850;10.662;2023-01-31T11:31:20;100958.63;;;4.78;100.00
64933;BME280;51446;53.850;10.662;2023-01-31T11:34:01;100963.19;;;4.84;100.00
64933;BME280;51446;53.850;10.662;2023-01-31T11:36:40;100950.63;;;4.74;100.00
64933;BME280;51446;53.850;10.662;2023-01-31T11:39:34;100954.81;;;4.70;100.00
64933;BME280;51446;53.850;10.662;2023-01-31T11:42:13;100957.53;;;4.73;100.00
64933;BME280;51446;53.850;10.662;2023-01-31T11:45:16;100937.63;;;4.74;100.00
64933;BME280;51446;53.850;10.662;2023-01-31T11:47:51;100936.19;;;4.80;100.00
64933;BME280;51446;53.850;10.662;2023-01-31T11:50:23;100930.44;;;4.88;100.00
64933;BME280;51446;53.850;10.662;2023-01-31T11:52:56;100926.69;;;4.81;100.00
64933;BME280;51446;53.850;10.662;2023-01-31T11:55:23;100930.31;;;4.84;100.00
64933;BME280;51446;53.850;10.662;2023-01-31T11:57:55;100915.94;;;4.93;100.00
64933;BME280;51446;53.850;10.662;2023-01-31T12:00:25;100922.75;;;4.91;100.00
64933;BME280;51446;53.850;10.662;2023-01-31T12:03:05;100917.50;;;4.89;100.00
64933;BME280;51446;53.850;10.662;2023-01-31T12:05:36;100904.88;;;4.98;100.00
64933;BME280;51446;53.850;10.662;2023-01-31T12:08:01;100896.88;;;4.94;100.00
64933;BME280;51446;53.850;10.662;2023-01-31T12:13:01;100881.34;;;4.95;100.00
64933;BME280;51446;53.850;10.662;2023-01-31T12:15:28;100886.63;;;4.97;100.00
64933;BME280;51446;53.850;10.662;2023-01-31T12:17:53;100889.22;;;4.97;100.00
64933;BME280;51446;53.850;10.662;2023-01-31T12:20:41;100878.06;;;4.99;100.00
64933;BME280;51446;53.850;10.662;2023-01-31T12:23:22;100866.28;;;4.86;100.00
64933;BME280;51446;53.850;10.662;2023-01-31T12:26:24;100884.28;;;5.03;100.00
64933;BME280;51446;53.850;10.662;2023-01-31T12:29:00;100884.91;;;4.97;100.00
64933;BME280;51446;53.850;10.662;2023-01-31T12:31:59;100873.69;;;4.98;100.00
64933;BME280;51446;53.850;10.662;2023-01-31T12:34:46;100871.28;;;5.03;100.00
64933;BME280;51446;53.850;10.662;2023-01-31T12:37:46;100863.59;;;5.06;100.00
64933;BME280;51446;53.850;10.662;2023-01-31T12:40:25;100863.50;;;5.03;100.00
64933;BME280;51446;53.850;10.662;2023-01-31T12:42:58;100862.06;;;5.11;100.00
64933;BME280;51446;53.850;10.662;2023-01-31T12:45:50;100854.19;;;5.10;100.00
64933;BME280;51446;53.850;10.662;2023-01-31T12:48:34;100842.63;;;5.24;100.00
64933;BME280;51446;53.850;10.662;2023-01-31T12:51:10;100827.72;;;5.20;100.00
64933;BME280;51446;53.850;10.662;2023-01-31T12:54:07;100821.88;;;5.26;100.00
64933;BME280;51446;53.850;10.662;2023-01-31T12:56:44;100825.38;;;5.26;100.00
64933;BME280;51446;53.850;10.662;2023-01-31T13:04:45;100829.19;;;5.34;100.00
64933;BME280;51446;53.850;10.662;2023-01-31T13:07:27;100823.06;;;5.34;100.00
64933;BME280;51446;53.850;10.662;2023-01-31T13:09:56;100824.78;;;5.33;100.00
64933;BME280;51446;53.850;10.662;2023-01-31T13:12:26;100826.78;;;5.41;100.00
64933;BME280;51446;53.850;10.662;2023-01-31T13:15:03;100818.56;;;5.52;100.00
64933;BME280;51446;53.850;10.662;2023-01-31T13:17:31;100821.44;;;5.60;100.00
64933;BME280;51446;53.850;10.662;2023-01-31T13:20:25;100822.22;;;5.58;100.00
64933;BME280;51446;53.850;10.662;2023-01-31T13:22:54;100813.25;;;5.73;100.00
64933;BME280;51446;53.850;10.662;2023-01-31T13:25:23;100809.81;;;5.74;100.00
64933;BME280;51446;53.850;10.662;2023-01-31T13:28:08;100802.19;;;5.79;100.00
64933;BME280;51446;53.850;10.662;2023-01-31T13:30:58;100800.00;;;5.91;100.00
64933;BME280;51446;53.850;10.662;2023-01-31T13:33:51;100793.81;;;5.88;100.00
64933;BME280;51446;53.850;10.662;2023-01-31T13:38:47;100790.38;;;5.89;100.00
64933;BME280;51446;53.850;10.662;2023-01-31T13:41:21;100799.38;;;5.97;100.00
64933;BME280;51446;53.850;10.662;2023-01-31T13:43:48;100793.50;;;6.03;100.00
64933;BME280;51446;53.850;10.662;2023-01-31T13:46:19;100786.44;;;6.00;100.00
64933;BME280;51446;53.850;10.662;2023-01-31T13:49:00;100789.16;;;6.03;100.00